sensor_id;sensor_type;location;lat;lon;timestamp;P1;durP1;ratioP1;P2;durP2;ratioP2
29906;SDS011;16776;50.958;10.994;2023-03-03T00:01:10;17.80;;;8.60;;
29906;SDS011;16776;50.958;10.994;2023-03-03T00:03:37;27.35;;;11.27;;
29906;SDS011;16776;50.958;10.994;2023-03-03T00:06:04;20.55;;;9.38;;
29906;SDS011;16776;50.958;10.994;2023-03-03T00:08:35;22.70;;;10.48;;
29906;SDS011;16776;50.958;10.994;2023-03-03T00:11:02;16.85;;;7.78;;
29906;SDS011;16776;50.958;10.994;2023-03-03T00:13:31;18.27;;;8.15;;
29906;SDS011;16776;50.958;10.994;2023-03-03T00:16:15;12.75;;;7.03;;
29906;SDS011;16776;50.958;10.994;2023-03-03T00:18:46;16.25;;;7.03;;
29906;SDS011;16776;50.958;10.994;2023-03-03T00:24:01;15.23;;;6.90;;
29906;SDS011;16776;50.958;10.994;2023-03-03T00:26:43;16.35;;;6.72;;
29906;SDS011;16776;50.958;10.994;2023-03-03T00:29:28;14.77;;;7.15;;
29906;SDS011;16776;50.958;10.994;2023-03-03T00:31:59;19.45;;;8.27;;
29906;SDS011;16776;50.958;10.994;2023-03-03T00:34:41;12.70;;;6.00;;
29906;SDS011;16776;50.958;10.994;2023-03-03T00:37:15;18.05;;;8.70;;
29906;SDS011;16776;50.958;10.994;2023-03-03T00:40:15;20.05;;;8.10;;
29906;SDS011;16776;50.958;10.994;2023-03-03T00:42:46;13.88;;;7.28;;
29906;SDS011;16776;50.958;10.994;2023-03-03T00:45:23;13.73;;;7.18;;
29906;SDS011;16776;50.958;10.994;2023-03-03T00:47:53;15.52;;;7.40;;
29906;SDS011;16776;50.958;10.994;2023-03-03T00:50:24;15.18;;;7.72;;
29906;SDS011;16776;50.958;10.994;2023-03-03T00:52:57;15.93;;;6.97;;
29906;SDS011;16776;50.958;10.994;2023-03-03T00:57:54;12.80;;;5.65;;
29906;SDS011;16776;50.958;10.994;2023-03-03T01:00:21;13.20;;;6.30;;
29906;SDS011;16776;50.958;10.994;2023-03-03T01:02:47;16.30;;;7.75;;
29906;SDS011;16776;50.958;10.994;2023-03-03T01:05:15;13.23;;;7.13;;
29906;SDS011;16776;50.958;10.994;2023-03-03T01:07:42;15.23;;;6.85;;
29906;SDS011;16776;50.958;10.994;2023-03-03T01:10:09;10.10;;;5.63;;
29906;SDS011;16776;50.958;10.994;2023-03-03T01:12:38;13.85;;;6.28;;
29906;SDS011;16776;50.958;10.994;2023-03-03T01:15:05;12.38;;;6.13;;
29906;SDS011;16776;50.958;10.994;2023-03-03T01:17:34;12.38;;;5.85;;
29906;SDS011;16776;50.958;10.994;2023-03-03T01:20:01;11.48;;;6.03;;
29906;SDS011;16776;50.958;10.994;2023-03-03T01:22:28;13.65;;;6.25;;
29906;SDS011;16776;50.958;10.994;2023-03-03T01:24:54;11.77;;;5.70;;
29906;SDS011;16776;50.958;10.994;2023-03-03T01:27:23;12.55;;;6.60;;
29906;SDS011;16776;50.958;10.994;2023-03-03T01:29:51;15.68;;;7.00;;
29906;SDS011;16776;50.958;10.994;2023-03-03T01:32:17;15.73;;;7.15;;
29906;SDS011;16776;50.958;10.994;2023-03-03T01:34:46;10.63;;;5.57;;
29906;SDS011;16776;50.958;10.994;2023-03-03T01:37:13;13.00;;;5.72;;
29906;SDS011;16776;50.958;10.994;2023-03-03T01:39:39;14.98;;;5.60;;
29906;SDS011;16776;50.958;10.994;2023-03-03T01:42:06;15.43;;;6.30;;
29906;SDS011;16776;50.958;10.994;2023-03-03T01:44:33;14.27;;;6.53;;
29906;SDS011;16776;50.958;10.994;2023-03-03T01:47:01;16.23;;;6.32;;
29906;SDS011;16776;50.958;10.994;2023-03-03T01:49:33;14.73;;;6.57;;
29906;SDS011;16776;50.958;10.994;2023-03-03T01:52:09;13.32;;;6.18;;
29906;SDS011;16776;50.958;10.994;2023-03-03T01:54:39;10.52;;;5.97;;
29906;SDS011;16776;50.958;10.994;2023-03-03T01:57:09;13.75;;;5.88;;
29906;SDS011;16776;50.958;10.994;2023-03-03T01:59:41;12.73;;;5.72;;
29906;SDS011;16776;50.958;10.994;2023-03-03T02:02:12;10.48;;;5.75;;
29906;SDS011;16776;50.958;10.994;2023-03-03T02:04:39;13.20;;;5.82;;
29906;SDS011;16776;50.958;10.994;2023-03-03T02:07:06;12.07;;;6.00;;
29906;SDS011;16776;50.958;10.994;2023-03-03T02:09:36;13.00;;;6.57;;
29906;SDS011;16776;50.958;10.994;2023-03-03T02:12:10;12.45;;;5.57;;
29906;SDS011;16776;50.958;10.994;2023-03-03T02:14:38;14.88;;;5.97;;
29906;SDS011;16776;50.958;10.994;2023-03-03T02:17:05;14.50;;;6.60;;
29906;SDS011;16776;50.958;10.994;2023-03-03T02:19:35;12.07;;;5.50;;
29906;SDS011;16776;50.958;10.994;2023-03-03T02:22:08;13.02;;;6.00;;
29906;SDS011;16776;50.958;10.994;2023-03-03T02:24:39;12.75;;;6.18;;
29906;SDS011;16776;50.958;10.994;2023-03-03T02:27:11;11.82;;;5.55;;
29906;SDS011;16776;50.958;10.994;2023-03-03T02:29:38;12.02;;;5.43;;
29906;SDS011;16776;50.958;10.994;2023-03-03T02:32:05;11.75;;;5.22;;
29906;SDS011;16776;50.958;10.994;2023-03-03T02:34:42;12.63;;;5.40;;
29906;SDS011;16776;50.958;10.994;2023-03-03T02:37:13;11.32;;;5.57;;
29906;SDS011;16776;50.958;10.994;2023-03-03T02:39:40;11.65;;;4.88;;
29906;SDS011;16776;50.958;10.994;2023-03-03T02:42:08;14.02;;;6.43;;
29906;SDS011;16776;50.958;10.994;2023-03-03T02:44:41;10.68;;;5.25;;
29906;SDS011;16776;50.958;10.994;2023-03-03T02:47:10;11.13;;;5.57;;
29906;SDS011;16776;50.958;10.994;2023-03-03T02:49:37;12.02;;;5.28;;
29906;SDS011;16776;50.958;10.994;2023-03-03T02:52:05;11.40;;;5.18;;
29906;SDS011;16776;50.958;10.994;2023-03-03T02:54:35;12.30;;;5.40;;
29906;SDS011;16776;50.958;10.994;2023-03-03T02:57:02;12.23;;;5.35;;
29906;SDS011;16776;50.958;10.994;2023-03-03T02:59:31;12.15;;;5.80;;
29906;SDS011;16776;50.958;10.994;2023-03-03T03:01:58;13.02;;;5.45;;
29906;SDS011;16776;50.958;10.994;2023-03-03T03:04:25;11.40;;;4.97;;
29906;SDS011;16776;50.958;10.994;2023-03-03T03:06:53;12.07;;;5.13;;
29906;SDS011;16776;50.958;10.994;2023-03-03T03:09:21;12.75;;;5.72;;
29906;SDS011;16776;50.958;10.994;2023-03-03T03:11:48;11.60;;;5.75;;
29906;SDS011;16776;50.958;10.994;2023-03-03T03:14:15;10.20;;;5.72;;
29906;SDS011;16776;50.958;10.994;2023-03-03T03:16:43;12.70;;;5.43;;
29906;SDS011;16776;50.958;10.994;2023-03-03T03:19:09;9.80;;;4.75;;
29906;SDS011;16776;50.958;10.994;2023-03-03T03:21:36;10.18;;;4.68;;
29906;SDS011;16776;50.958;10.994;2023-03-03T03:24:03;11.30;;;5.43;;
29906;SDS011;16776;50.958;10.994;2023-03-03T03:26:30;8.10;;;4.57;;
29906;SDS011;16776;50.958;10.994;2023-03-03T03:28:56;10.95;;;4.88;;
29906;SDS011;16776;50.958;10.994;2023-03-03T03:31:24;9.32;;;5.40;;
29906;SDS011;16776;50.958;10.994;2023-03-03T03:33:52;12.60;;;6.40;;
29906;SDS011;16776;50.958;10.994;2023-03-03T03:36:18;10.38;;;4.97;;
29906;SDS011;16776;50.958;10.994;2023-03-03T03:38:45;10.77;;;4.55;;
29906;SDS011;16776;50.958;10.994;2023-03-03T03:41:12;9.57;;;4.90;;
29906;SDS011;16776;50.958;10.994;2023-03-03T03:43:38;10.75;;;4.53;;
29906;SDS011;16776;50.958;10.994;2023-03-03T03:46:05;9.85;;;4.60;;
29906;SDS011;16776;50.958;10.994;2023-03-03T03:48:32;9.82;;;4.30;;
29906;SDS011;16776;50.958;10.994;2023-03-03T03:51:00;12.88;;;5.25;;
29906;SDS011;16776;50.958;10.994;2023-03-03T03:53:26;13.93;;;5.95;;
29906;SDS011;16776;50.958;10.994;2023-03-03T03:55:53;10.02;;;4.72;;
29906;SDS011;16776;50.958;10.994;2023-03-03T03:58:19;10.95;;;4.85;;
29906;SDS011;16776;50.958;10.994;2023-03-03T04:00:46;8.25;;;4.45;;
29906;SDS011;16776;50.958;10.994;2023-03-03T04:03:13;8.45;;;4.72;;
29906;SDS011;16776;50.958;10.994;2023-03-03T04:05:40;12.15;;;5.18;;
29906;SDS011;16776;50.958;10.994;2023-03-03T04:08:08;9.05;;;4.57;;
29906;SDS011;16776;50.958;10.994;2023-03-03T04:10:35;8.52;;;4.28;;
29906;SDS011;16776;50.958;10.994;2023-03-03T04:13:02;9.55;;;4.43;;
29906;SDS011;16776;50.958;10.994;2023-03-03T04:15:28;8.15;;;4.35;;
29906;SDS011;16776;50.958;10.994;2023-03-03T04:17:55;8.70;;;4.82;;
29906;SDS011;16776;50.958;10.994;2023-03-03T04:20:22;10.43;;;4.40;;
29906;SDS011;16776;50.958;10.994;2023-03-03T04:22:48;11.75;;;4.80;;
29906;SDS011;16776;50.958;10.994;2023-03-03T04:25:16;8.50;;;4.60;;
29906;SDS011;16776;50.958;10.994;2023-03-03T04:27:43;10.05;;;4.68;;
29906;SDS011;16776;50.958;10.994;2023-03-03T04:30:10;8.25;;;4.88;;
29906;SDS011;16776;50.958;10.994;2023-03-03T04:32:38;11.30;;;4.32;;
29906;SDS011;16776;50.958;10.994;2023-03-03T04:35:05;9.95;;;4.32;;
29906;SDS011;16776;50.958;10.994;2023-03-03T04:37:32;7.90;;;4.57;;
29906;SDS011;16776;50.958;10.994;2023-03-03T04:39:59;9.35;;;4.03;;
29906;SDS011;16776;50.958;10.994;2023-03-03T04:42:26;7.10;;;4.07;;
29906;SDS011;16776;50.958;10.994;2023-03-03T04:44:56;7.82;;;3.88;;
29906;SDS011;16776;50.958;10.994;2023-03-03T04:47:22;8.85;;;4.55;;
29906;SDS011;16776;50.958;10.994;2023-03-03T04:49:49;11.63;;;5.05;;
29906;SDS011;16776;50.958;10.994;2023-03-03T04:52:16;12.70;;;5.00;;
29906;SDS011;16776;50.958;10.994;2023-03-03T04:54:42;8.95;;;4.90;;
29906;SDS011;16776;50.958;10.994;2023-03-03T04:57:09;9.25;;;4.22;;
29906;SDS011;16776;50.958;10.994;2023-03-03T04:59:37;6.75;;;3.78;;
29906;SDS011;16776;50.958;10.994;2023-03-03T05:02:03;10.35;;;4.28;;
29906;SDS011;16776;50.958;10.994;2023-03-03T05:04:30;8.00;;;3.92;;
29906;SDS011;16776;50.958;10.994;2023-03-03T05:06:57;7.50;;;3.30;;
29906;SDS011;16776;50.958;10.994;2023-03-03T05:09:24;8.80;;;3.97;;
29906;SDS011;16776;50.958;10.994;2023-03-03T05:11:50;9.00;;;4.60;;
29906;SDS011;16776;50.958;10.994;2023-03-03T05:14:17;8.82;;;4.40;;
29906;SDS011;16776;50.958;10.994;2023-03-03T05:16:46;8.40;;;4.05;;
29906;SDS011;16776;50.958;10.994;2023-03-03T05:19:12;8.43;;;3.95;;
29906;SDS011;16776;50.958;10.994;2023-03-03T05:21:42;7.53;;;3.72;;
29906;SDS011;16776;50.958;10.994;2023-03-03T05:24:09;6.15;;;2.90;;
29906;SDS011;16776;50.958;10.994;2023-03-03T05:26:36;6.43;;;3.33;;
29906;SDS011;16776;50.958;10.994;2023-03-03T05:29:03;7.93;;;3.78;;
29906;SDS011;16776;50.958;10.994;2023-03-03T05:31:30;7.07;;;3.90;;
29906;SDS011;16776;50.958;10.994;2023-03-03T05:33:58;7.97;;;4.50;;
29906;SDS011;16776;50.958;10.994;2023-03-03T05:36:24;9.65;;;4.43;;
29906;SDS011;16776;50.958;10.994;2023-03-03T05:38:53;7.30;;;3.78;;
29906;SDS011;16776;50.958;10.994;2023-03-03T05:41:19;8.23;;;4.85;;
29906;SDS011;16776;50.958;10.994;2023-03-03T05:43:46;7.05;;;4.50;;
29906;SDS011;16776;50.958;10.994;2023-03-03T05:46:12;6.97;;;3.90;;
29906;SDS011;16776;50.958;10.994;2023-03-03T05:48:39;6.80;;;3.40;;
29906;SDS011;16776;50.958;10.994;2023-03-03T05:51:07;5.00;;;3.17;;
29906;SDS011;16776;50.958;10.994;2023-03-03T05:53:34;6.40;;;3.53;;
29906;SDS011;16776;50.958;10.994;2023-03-03T05:56:00;5.68;;;3.28;;
29906;SDS011;16776;50.958;10.994;2023-03-03T05:58:27;5.63;;;3.17;;
29906;SDS011;16776;50.958;10.994;2023-03-03T06:00:56;4.75;;;2.72;;
29906;SDS011;16776;50.958;10.994;2023-03-03T06:03:22;4.88;;;2.85;;
29906;SDS011;16776;50.958;10.994;2023-03-03T06:05:49;6.22;;;3.08;;
29906;SDS011;16776;50.958;10.994;2023-03-03T06:08:18;4.25;;;2.78;;
29906;SDS011;16776;50.958;10.994;2023-03-03T06:10:47;5.88;;;2.95;;
29906;SDS011;16776;50.958;10.994;2023-03-03T06:13:14;5.47;;;2.95;;
29906;SDS011;16776;50.958;10.994;2023-03-03T06:15:40;3.97;;;2.63;;
29906;SDS011;16776;50.958;10.994;2023-03-03T06:18:07;4.20;;;2.47;;
29906;SDS011;16776;50.958;10.994;2023-03-03T06:20:34;4.72;;;3.03;;
29906;SDS011;16776;50.958;10.994;2023-03-03T06:23:02;6.10;;;2.95;;
29906;SDS011;16776;50.958;10.994;2023-03-03T06:25:30;4.95;;;2.83;;
29906;SDS011;16776;50.958;10.994;2023-03-03T06:27:59;6.13;;;2.85;;
29906;SDS011;16776;50.958;10.994;2023-03-03T06:30:26;5.05;;;3.10;;
29906;SDS011;16776;50.958;10.994;2023-03-03T06:32:54;5.55;;;2.72;;
29906;SDS011;16776;50.958;10.994;2023-03-03T06:35:21;6.80;;;3.40;;
29906;SDS011;16776;50.958;10.994;2023-03-03T06:37:47;6.75;;;2.90;;
29906;SDS011;16776;50.958;10.994;2023-03-03T06:40:14;7.10;;;3.30;;
29906;SDS011;16776;50.958;10.994;2023-03-03T06:42:43;5.82;;;2.67;;
29906;SDS011;16776;50.958;10.994;2023-03-03T06:45:09;5.90;;;2.88;;
29906;SDS011;16776;50.958;10.994;2023-03-03T06:47:37;4.72;;;2.55;;
29906;SDS011;16776;50.958;10.994;2023-03-03T06:50:03;4.85;;;2.50;;
29906;SDS011;16776;50.958;10.994;2023-03-03T06:52:30;5.32;;;2.67;;
29906;SDS011;16776;50.958;10.994;2023-03-03T06:54:58;5.45;;;2.80;;
29906;SDS011;16776;50.958;10.994;2023-03-03T06:57:28;6.35;;;3.05;;
29906;SDS011;16776;50.958;10.994;2023-03-03T06:59:58;6.47;;;2.80;;
29906;SDS011;16776;50.958;10.994;2023-03-03T07:02:37;5.13;;;2.25;;
29906;SDS011;16776;50.958;10.994;2023-03-03T07:05:06;5.10;;;2.80;;
29906;SDS011;16776;50.958;10.994;2023-03-03T07:07:40;5.35;;;2.78;;
29906;SDS011;16776;50.958;10.994;2023-03-03T07:10:11;4.28;;;2.40;;
29906;SDS011;16776;50.958;10.994;2023-03-03T07:12:43;4.85;;;2.22;;
29906;SDS011;16776;50.958;10.994;2023-03-03T07:15:14;5.75;;;2.72;;
29906;SDS011;16776;50.958;10.994;2023-03-03T07:20:14;4.80;;;2.08;;
29906;SDS011;16776;50.958;10.994;2023-03-03T07:22:44;3.70;;;1.90;;
29906;SDS011;16776;50.958;10.994;2023-03-03T07:25:17;6.03;;;2.45;;
29906;SDS011;16776;50.958;10.994;2023-03-03T07:27:46;5.18;;;2.20;;
29906;SDS011;16776;50.958;10.994;2023-03-03T07:30:23;3.22;;;1.90;;
29906;SDS011;16776;50.958;10.994;2023-03-03T07:32:51;4.82;;;2.47;;
29906;SDS011;16776;50.958;10.994;2023-03-03T07:35:28;3.95;;;2.28;;
29906;SDS011;16776;50.958;10.994;2023-03-03T07:38:04;4.60;;;2.57;;
29906;SDS011;16776;50.958;10.994;2023-03-03T07:40:44;4.15;;;2.30;;
29906;SDS011;16776;50.958;10.994;2023-03-03T07:43:16;6.20;;;2.33;;
29906;SDS011;16776;50.958;10.994;2023-03-03T07:46:16;4.50;;;2.17;;
29906;SDS011;16776;50.958;10.994;2023-03-03T07:48:48;5.57;;;2.08;;
29906;SDS011;16776;50.958;10.994;2023-03-03T07:51:17;4.30;;;2.35;;
29906;SDS011;16776;50.958;10.994;2023-03-03T07:53:49;3.50;;;2.20;;
29906;SDS011;16776;50.958;10.994;2023-03-03T07:56:18;4.43;;;2.08;;
29906;SDS011;16776;50.958;10.994;2023-03-03T07:58:52;3.72;;;1.88;;
29906;SDS011;16776;50.958;10.994;2023-03-03T08:01:28;3.72;;;2.17;;
29906;SDS011;16776;50.958;10.994;2023-03-03T08:04:04;4.20;;;2.20;;
29906;SDS011;16776;50.958;10.994;2023-03-03T08:06:40;3.50;;;1.67;;
29906;SDS011;16776;50.958;10.994;2023-03-03T08:12:17;4.63;;;2.08;;
29906;SDS011;16776;50.958;10.994;2023-03-03T08:15:11;4.82;;;2.40;;
29906;SDS011;16776;50.958;10.994;2023-03-03T08:17:49;4.65;;;2.25;;
29906;SDS011;16776;50.958;10.994;2023-03-03T08:23:18;2.85;;;2.10;;
29906;SDS011;16776;50.958;10.994;2023-03-03T08:25:45;4.57;;;2.15;;
29906;SDS011;16776;50.958;10.994;2023-03-03T08:28:13;2.58;;;1.85;;
29906;SDS011;16776;50.958;10.994;2023-03-03T08:30:40;4.35;;;2.95;;
29906;SDS011;16776;50.958;10.994;2023-03-03T08:33:09;2.97;;;1.90;;
29906;SDS011;16776;50.958;10.994;2023-03-03T08:35:39;4.10;;;2.17;;
29906;SDS011;16776;50.958;10.994;2023-03-03T08:38:06;3.42;;;2.25;;
29906;SDS011;16776;50.958;10.994;2023-03-03T08:40:33;3.97;;;2.15;;
29906;SDS011;16776;50.958;10.994;2023-03-03T08:43:00;4.50;;;1.63;;
29906;SDS011;16776;50.958;10.994;2023-03-03T08:45:27;4.07;;;1.95;;
29906;SDS011;16776;50.958;10.994;2023-03-03T08:47:54;4.35;;;1.90;;
29906;SDS011;16776;50.958;10.994;2023-03-03T08:50:22;2.88;;;1.83;;
29906;SDS011;16776;50.958;10.994;2023-03-03T08:52:49;3.67;;;2.30;;
29906;SDS011;16776;50.958;10.994;2023-03-03T08:55:15;5.05;;;2.78;;
29906;SDS011;16776;50.958;10.994;2023-03-03T08:57:45;3.40;;;1.83;;
29906;SDS011;16776;50.958;10.994;2023-03-03T09:00:13;2.88;;;1.67;;
29906;SDS011;16776;50.958;10.994;2023-03-03T09:02:41;3.25;;;1.95;;
29906;SDS011;16776;50.958;10.994;2023-03-03T09:05:08;3.65;;;2.17;;
29906;SDS011;16776;50.958;10.994;2023-03-03T09:07:37;4.15;;;2.28;;
29906;SDS011;16776;50.958;10.994;2023-03-03T09:10:04;4.13;;;2.10;;
29906;SDS011;16776;50.958;10.994;2023-03-03T09:12:33;2.95;;;1.80;;
29906;SDS011;16776;50.958;10.994;2023-03-03T09:15:05;3.97;;;2.20;;
29906;SDS011;16776;50.958;10.994;2023-03-03T09:17:43;3.10;;;1.92;;
29906;SDS011;16776;50.958;10.994;2023-03-03T09:20:30;3.22;;;1.77;;
29906;SDS011;16776;50.958;10.994;2023-03-03T09:25:58;3.85;;;2.00;;
29906;SDS011;16776;50.958;10.994;2023-03-03T09:28:55;4.65;;;2.28;;
29906;SDS011;16776;50.958;10.994;2023-03-03T09:31:30;4.05;;;1.95;;
29906;SDS011;16776;50.958;10.994;2023-03-03T09:34:09;3.47;;;2.10;;
29906;SDS011;16776;50.958;10.994;2023-03-03T09:36:45;6.55;;;3.15;;
29906;SDS011;16776;50.958;10.994;2023-03-03T09:39:17;4.80;;;2.58;;
29906;SDS011;16776;50.958;10.994;2023-03-03T09:41:52;5.28;;;2.92;;
29906;SDS011;16776;50.958;10.994;2023-03-03T09:44:56;3.80;;;2.10;;
29906;SDS011;16776;50.958;10.994;2023-03-03T09:47:51;2.80;;;2.17;;
29906;SDS011;16776;50.958;10.994;2023-03-03T09:50:33;4.95;;;2.20;;
29906;SDS011;16776;50.958;10.994;2023-03-03T09:53:17;2.75;;;1.65;;
29906;SDS011;16776;50.958;10.994;2023-03-03T09:55:53;3.70;;;2.10;;
29906;SDS011;16776;50.958;10.994;2023-03-03T09:58:30;3.13;;;1.85;;
29906;SDS011;16776;50.958;10.994;2023-03-03T10:01:18;4.40;;;1.90;;
29906;SDS011;16776;50.958;10.994;2023-03-03T10:04:13;3.83;;;1.85;;
29906;SDS011;16776;50.958;10.994;2023-03-03T10:06:52;2.83;;;1.55;;
29906;SDS011;16776;50.958;10.994;2023-03-03T10:09:39;3.92;;;1.70;;
29906;SDS011;16776;50.958;10.994;2023-03-03T10:12:15;3.05;;;1.50;;
29906;SDS011;16776;50.958;10.994;2023-03-03T10:15:02;2.55;;;1.50;;
29906;SDS011;16776;50.958;10.994;2023-03-03T10:17:43;3.70;;;1.80;;
29906;SDS011;16776;50.958;10.994;2023-03-03T10:20:21;4.25;;;2.10;;
29906;SDS011;16776;50.958;10.994;2023-03-03T10:22:54;3.30;;;2.05;;
29906;SDS011;16776;50.958;10.994;2023-03-03T10:25:25;3.67;;;2.03;;
29906;SDS011;16776;50.958;10.994;2023-03-03T10:28:09;2.08;;;1.70;;
29906;SDS011;16776;50.958;10.994;2023-03-03T10:30:56;3.22;;;1.90;;
29906;SDS011;16776;50.958;10.994;2023-03-03T10:33:33;2.95;;;1.77;;
29906;SDS011;16776;50.958;10.994;2023-03-03T10:36:20;2.05;;;1.40;;
29906;SDS011;16776;50.958;10.994;2023-03-03T10:38:59;4.30;;;1.90;;
29906;SDS011;16776;50.958;10.994;2023-03-03T10:41:41;3.53;;;1.80;;
29906;SDS011;16776;50.958;10.994;2023-03-03T10:44:27;2.42;;;1.88;;
29906;SDS011;16776;50.958;10.994;2023-03-03T10:47:05;4.00;;;1.70;;
29906;SDS011;16776;50.958;10.994;2023-03-03T10:49:50;1.83;;;1.50;;
29906;SDS011;16776;50.958;10.994;2023-03-03T10:52:35;3.08;;;1.92;;
29906;SDS011;16776;50.958;10.994;2023-03-03T10:55:16;1.77;;;1.13;;
29906;SDS011;16776;50.958;10.994;2023-03-03T10:58:11;3.75;;;1.77;;
29906;SDS011;16776;50.958;10.994;2023-03-03T11:00:48;4.40;;;1.70;;
29906;SDS011;16776;50.958;10.994;2023-03-03T11:03:34;3.08;;;1.63;;
29906;SDS011;16776;50.958;10.994;2023-03-03T11:06:13;2.55;;;1.85;;
29906;SDS011;16776;50.958;10.994;2023-03-03T11:08:45;2.95;;;1.65;;
29906;SDS011;16776;50.958;10.994;2023-03-03T11:13:46;3.40;;;1.67;;
29906;SDS011;16776;50.958;10.994;2023-03-03T11:16:27;2.92;;;1.63;;
29906;SDS011;16776;50.958;10.994;2023-03-03T11:22:17;3.03;;;1.60;;
29906;SDS011;16776;50.958;10.994;2023-03-03T11:25:00;4.40;;;1.90;;
29906;SDS011;16776;50.958;10.994;2023-03-03T11:27:39;3.00;;;1.70;;
29906;SDS011;16776;50.958;10.994;2023-03-03T11:30:32;2.40;;;1.50;;
29906;SDS011;16776;50.958;10.994;2023-03-03T11:33:11;2.47;;;1.60;;
29906;SDS011;16776;50.958;10.994;2023-03-03T11:35:45;3.08;;;1.40;;
29906;SDS011;16776;50.958;10.994;2023-03-03T11:38:25;2.95;;;1.90;;
29906;SDS011;16776;50.958;10.994;2023-03-03T11:41:03;2.55;;;1.90;;
29906;SDS011;16776;50.958;10.994;2023-03-03T11:43:37;2.05;;;1.65;;
29906;SDS011;16776;50.958;10.994;2023-03-03T11:46:08;4.32;;;1.92;;
29906;SDS011;16776;50.958;10.994;2023-03-03T11:48:39;3.13;;;1.75;;
29906;SDS011;16776;50.958;10.994;2023-03-03T11:51:14;3.28;;;1.85;;
29906;SDS011;16776;50.958;10.994;2023-03-03T11:53:49;2.83;;;1.90;;
29906;SDS011;16776;50.958;10.994;2023-03-03T11:56:26;2.92;;;1.50;;
29906;SDS011;16776;50.958;10.994;2023-03-03T11:59:00;4.18;;;1.88;;
29906;SDS011;16776;50.958;10.994;2023-03-03T12:01:41;3.22;;;1.60;;
29906;SDS011;16776;50.958;10.994;2023-03-03T12:04:14;2.33;;;1.40;;
29906;SDS011;16776;50.958;10.994;2023-03-03T12:06:50;2.25;;;1.33;;
29906;SDS011;16776;50.958;10.994;2023-03-03T12:09:30;1.77;;;1.57;;
29906;SDS011;16776;50.958;10.994;2023-03-03T12:12:05;2.70;;;1.40;;
29906;SDS011;16776;50.958;10.994;2023-03-03T12:14:49;2.85;;;2.05;;
29906;SDS011;16776;50.958;10.994;2023-03-03T12:17:28;3.00;;;1.38;;
29906;SDS011;16776;50.958;10.994;2023-03-03T12:20:12;4.15;;;1.80;;
29906;SDS011;16776;50.958;10.994;2023-03-03T12:22:51;2.83;;;1.48;;
29906;SDS011;16776;50.958;10.994;2023-03-03T12:25:29;2.90;;;1.92;;
29906;SDS011;16776;50.958;10.994;2023-03-03T12:28:03;2.00;;;1.70;;
29906;SDS011;16776;50.958;10.994;2023-03-03T12:30:39;2.10;;;1.45;;
29906;SDS011;16776;50.958;10.994;2023-03-03T12:33:26;3.38;;;1.73;;
29906;SDS011;16776;50.958;10.994;2023-03-03T12:36:04;3.15;;;1.33;;
29906;SDS011;16776;50.958;10.994;2023-03-03T12:38:47;2.00;;;1.80;;
29906;SDS011;16776;50.958;10.994;2023-03-03T12:41:22;3.35;;;1.83;;
29906;SDS011;16776;50.958;10.994;2023-03-03T12:43:57;2.35;;;1.58;;
29906;SDS011;16776;50.958;10.994;2023-03-03T12:46:34;3.00;;;1.50;;
29906;SDS011;16776;50.958;10.994;2023-03-03T12:49:09;1.98;;;1.38;;
29906;SDS011;16776;50.958;10.994;2023-03-03T12:51:41;2.72;;;1.67;;
29906;SDS011;16776;50.958;10.994;2023-03-03T12:54:17;3.17;;;1.65;;
29906;SDS011;16776;50.958;10.994;2023-03-03T12:57:03;2.58;;;1.63;;
29906;SDS011;16776;50.958;10.994;2023-03-03T12:59:38;2.20;;;1.60;;
29906;SDS011;16776;50.958;10.994;2023-03-03T13:02:19;2.35;;;1.48;;
29906;SDS011;16776;50.958;10.994;2023-03-03T13:05:01;2.90;;;1.52;;
29906;SDS011;16776;50.958;10.994;2023-03-03T13:07:35;2.30;;;1.30;;
29906;SDS011;16776;50.958;10.994;2023-03-03T13:10:15;2.75;;;1.77;;
29906;SDS011;16776;50.958;10.994;2023-03-03T13:12:49;2.03;;;1.40;;
29906;SDS011;16776;50.958;10.994;2023-03-03T13:15:24;2.30;;;1.45;;
29906;SDS011;16776;50.958;10.994;2023-03-03T13:17:57;3.22;;;1.50;;
29906;SDS011;16776;50.958;10.994;2023-03-03T13:20:32;2.05;;;1.60;;
29906;SDS011;16776;50.958;10.994;2023-03-03T13:23:06;3.78;;;1.70;;
29906;SDS011;16776;50.958;10.994;2023-03-03T13:28:27;2.50;;;1.80;;
29906;SDS011;16776;50.958;10.994;2023-03-03T13:31:00;3.90;;;1.88;;
29906;SDS011;16776;50.958;10.994;2023-03-03T13:33:31;3.03;;;2.05;;
29906;SDS011;16776;50.958;10.994;2023-03-03T13:36:01;3.13;;;1.67;;
29906;SDS011;16776;50.958;10.994;2023-03-03T13:38:31;1.60;;;1.33;;
29906;SDS011;16776;50.958;10.994;2023-03-03T13:41:03;2.72;;;1.15;;
29906;SDS011;16776;50.958;10.994;2023-03-03T13:43:38;2.80;;;1.40;;
29906;SDS011;16776;50.958;10.994;2023-03-03T13:46:12;3.33;;;1.20;;
29906;SDS011;16776;50.958;10.994;2023-03-03T13:48:47;2.35;;;1.42;;
29906;SDS011;16776;50.958;10.994;2023-03-03T13:51:24;2.65;;;1.48;;
29906;SDS011;16776;50.958;10.994;2023-03-03T13:54:02;1.75;;;1.05;;
29906;SDS011;16776;50.958;10.994;2023-03-03T13:56:51;1.92;;;1.70;;
29906;SDS011;16776;50.958;10.994;2023-03-03T13:59:38;2.35;;;1.48;;
29906;SDS011;16776;50.958;10.994;2023-03-03T14:02:19;3.50;;;2.28;;
29906;SDS011;16776;50.958;10.994;2023-03-03T14:05:01;2.22;;;1.52;;
29906;SDS011;16776;50.958;10.994;2023-03-03T14:07:37;2.60;;;1.75;;
29906;SDS011;16776;50.958;10.994;2023-03-03T14:10:08;2.15;;;1.65;;
29906;SDS011;16776;50.958;10.994;2023-03-03T14:12:44;2.60;;;1.70;;
29906;SDS011;16776;50.958;10.994;2023-03-03T14:15:17;2.15;;;1.33;;
29906;SDS011;16776;50.958;10.994;2023-03-03T14:20:44;1.58;;;1.20;;
29906;SDS011;16776;50.958;10.994;2023-03-03T14:23:16;1.25;;;1.13;;
29906;SDS011;16776;50.958;10.994;2023-03-03T14:25:50;1.50;;;1.25;;
29906;SDS011;16776;50.958;10.994;2023-03-03T14:28:24;1.90;;;1.70;;
29906;SDS011;16776;50.958;10.994;2023-03-03T14:30:52;1.35;;;1.10;;
29906;SDS011;16776;50.958;10.994;2023-03-03T14:33:27;1.92;;;1.30;;
29906;SDS011;16776;50.958;10.994;2023-03-03T14:36:05;2.13;;;1.40;;
29906;SDS011;16776;50.958;10.994;2023-03-03T14:38:46;2.58;;;1.70;;
29906;SDS011;16776;50.958;10.994;2023-03-03T14:41:18;3.28;;;1.92;;
29906;SDS011;16776;50.958;10.994;2023-03-03T14:47:10;2.75;;;1.58;;
29906;SDS011;16776;50.958;10.994;2023-03-03T14:49:46;2.35;;;1.45;;
29906;SDS011;16776;50.958;10.994;2023-03-03T14:52:19;2.53;;;1.50;;
29906;SDS011;16776;50.958;10.994;2023-03-03T14:54:49;1.67;;;1.30;;
29906;SDS011;16776;50.958;10.994;2023-03-03T14:57:17;1.75;;;1.17;;
29906;SDS011;16776;50.958;10.994;2023-03-03T14:59:59;2.45;;;1.30;;
29906;SDS011;16776;50.958;10.994;2023-03-03T15:02:35;2.28;;;1.60;;
29906;SDS011;16776;50.958;10.994;2023-03-03T15:05:10;2.83;;;1.75;;
29906;SDS011;16776;50.958;10.994;2023-03-03T15:07:42;3.03;;;1.70;;
29906;SDS011;16776;50.958;10.994;2023-03-03T15:10:10;2.40;;;1.52;;
29906;SDS011;16776;50.958;10.994;2023-03-03T15:12:39;2.30;;;1.52;;
29906;SDS011;16776;50.958;10.994;2023-03-03T15:15:16;2.50;;;1.52;;
29906;SDS011;16776;50.958;10.994;2023-03-03T15:17:52;2.40;;;1.60;;
29906;SDS011;16776;50.958;10.994;2023-03-03T15:20:23;1.95;;;1.40;;
29906;SDS011;16776;50.958;10.994;2023-03-03T15:22:59;3.70;;;1.55;;
29906;SDS011;16776;50.958;10.994;2023-03-03T15:25:38;2.00;;;1.17;;
29906;SDS011;16776;50.958;10.994;2023-03-03T15:28:14;2.08;;;1.38;;
29906;SDS011;16776;50.958;10.994;2023-03-03T15:30:50;1.65;;;1.35;;
29906;SDS011;16776;50.958;10.994;2023-03-03T15:33:21;1.90;;;1.48;;